Weather reports worldwide

Advertisment
Rensjoen, Sweden (2031): temperature & dewpoint: 04.07.2020 11:00:00 - 10.07.2020 11:00:00 (CEST)Rensjoen, Sweden (2031): wind speed & gusts: 04.07.2020 11:00:00 - 10.07.2020 11:00:00 (CEST)Rensjoen, Sweden (2031): wind direction: 04.07.2020 11:00:00 - 10.07.2020 11:00:00 (CEST)Rensjoen, Sweden (2031): visibility: 04.07.2020 11:00:00 - 10.07.2020 11:00:00 (CEST)Rensjoen, Sweden (2031): precipitation: 04.07.2020 11:00:00 - 10.07.2020 11:00:00 (CEST)
Date & Time tt [°C] td [°C] ff [km/h] ff [kn] fx [km/h] fx [kn] dd vv [km] rr [mm]
10.07.2020 11:00:00 - - - - - - - - -
10.07.2020 10:00:00 9,4 7,0 11 6 20 11 N 47 0,0
10.07.2020 09:00:00 8,1 6,6 11 6 21 11 NNE 50 0,0
10.07.2020 08:00:00 9,1 7,2 10 6 16 9 N 50 0,0
10.07.2020 07:00:00 7,9 6,8 8 4 15 8 NNE 50 0,0
10.07.2020 06:00:00 7,8 7,2 6 3 9 5 NE 50 0,5
10.07.2020 05:00:00 7,5 6,9 4 2 11 6 NNE 16 0,1
10.07.2020 04:00:00 7,4 6,7 6 4 14 8 NNE 22 0,2
10.07.2020 03:00:00 7,5 6,8 10 6 17 9 N 9 0,5
10.07.2020 02:00:00 7,2 6,8 9 5 19 11 N 6 1,5
10.07.2020 01:00:00 7,8 6,9 10 5 22 12 NNE 6 0,7
10.07.2020 00:00:00 7,7 6,9 14 8 25 13 N 18 2,4
09.07.2020 23:00:00 8,0 7,2 11 6 23 12 N 7 1,4
09.07.2020 22:00:00 8,3 7,4 10 6 26 14 N 12 1,5
09.07.2020 21:00:00 8,6 7,2 12 6 23 12 NNW 20 0,1
09.07.2020 20:00:00 9,1 8,0 8 5 22 12 N 9 1,1
09.07.2020 19:00:00 10,2 7,4 9 5 33 18 N 47 0,3
09.07.2020 18:00:00 12,2 6,0 19 10 35 19 NNW 46 0,0
09.07.2020 17:00:00 13,0 6,1 21 12 32 17 NNW 47 0,0
09.07.2020 16:00:00 14,4 6,2 16 9 26 14 NNW 43 0,0
09.07.2020 15:00:00 14,4 5,7 9 5 20 11 N 50 0,0
09.07.2020 14:00:00 14,6 5,4 9 5 20 11 N 43 0,0
09.07.2020 13:00:00 14,2 5,8 11 6 21 11 NNE 43 0,0
09.07.2020 12:00:00 13,5 5,9 10 5 19 10 N 36 0,0
09.07.2020 11:00:00 12,9 6,7 8 5 21 12 N 44 0,0
09.07.2020 10:00:00 11,2 6,1 11 6 20 11 NNW 37 0,0
09.07.2020 09:00:00 10,7 5,7 13 7 21 11 NW 50 0,0
09.07.2020 08:00:00 9,8 5,6 9 5 21 11 NW 50 0,0
09.07.2020 07:00:00 9,0 5,4 13 7 21 11 NNW 50 0,0
09.07.2020 06:00:00 8,3 4,9 9 5 19 10 N 50 0,0
09.07.2020 05:00:00 8,4 5,7 10 5 19 10 N 50 0,0
09.07.2020 04:00:00 8,2 5,5 10 5 18 10 N 50 0,0
09.07.2020 03:00:00 7,4 5,4 6 3 14 8 N 50 0,0
09.07.2020 02:00:00 7,7 5,5 9 5 16 9 N 50 0,0
09.07.2020 01:00:00 8,3 4,9 9 5 17 9 N 50 0,0
09.07.2020 00:00:00 8,9 4,9 6 4 16 9 N 50 0,0
08.07.2020 23:00:00 9,5 5,3 7 4 14 7 N 50 0,0
08.07.2020 22:00:00 10,4 6,0 7 4 16 9 N 50 0,0
08.07.2020 21:00:00 11,6 6,1 8 4 20 11 N 50 0,0
08.07.2020 20:00:00 12,7 6,7 8 4 14 8 N 46 0,0
08.07.2020 19:00:00 11,9 7,4 6 3 15 8 N 50 0,0
08.07.2020 18:00:00 13,0 4,7 11 6 19 10 NNW 50 0,0
08.07.2020 17:00:00 13,7 3,2 2 1 13 7 N 36 0,0
08.07.2020 16:00:00 14,5 3,9 7 4 18 10 NE 32 0,0
08.07.2020 15:00:00 13,9 3,4 4 2 13 7 ESE 47 0,0
08.07.2020 14:00:00 13,5 3,3 5 3 19 10 ESE 41 0,0
08.07.2020 13:00:00 11,9 5,3 6 3 12 6 NE 48 0,0
08.07.2020 12:00:00 11,3 6,2 6 4 11 6 NNE 38 0,0
08.07.2020 11:00:00 9,8 4,8 3 2 9 5 NNW 36 0,0
08.07.2020 10:00:00 9,6 4,6 4 2 11 6 NW 50 0,0
08.07.2020 09:00:00 9,3 4,5 5 3 11 6 NNW 50 0,0
08.07.2020 08:00:00 9,2 4,2 5 3 14 7 NNE 50 0,0
08.07.2020 07:00:00 7,9 4,1 9 5 13 7 N 50 0,0
08.07.2020 06:00:00 7,9 4,1 6 4 14 7 N 50 0,0
08.07.2020 05:00:00 6,9 4,2 6 3 10 5 N 33 0,0
08.07.2020 04:00:00 6,8 3,6 6 3 11 6 N 50 0,0
08.07.2020 03:00:00 6,9 3,0 9 5 17 9 N 50 0,0
08.07.2020 02:00:00 6,8 3,2 10 5 18 10 NNE 50 0,0
08.07.2020 01:00:00 7,1 2,4 10 5 20 11 N 50 0,0
08.07.2020 00:00:00 7,5 3,2 9 5 19 10 N 50 0,0
07.07.2020 23:00:00 8,2 3,8 9 5 26 14 N 50 0,0
07.07.2020 22:00:00 8,9 3,9 14 7 24 13 N 50 0,0
07.07.2020 21:00:00 10,4 3,7 12 6 27 15 N 50 0,0
07.07.2020 20:00:00 10,5 3,3 17 9 29 15 NNW 44 0,0
07.07.2020 19:00:00 11,4 3,2 13 7 25 14 NNW 38 0,0
07.07.2020 18:00:00 11,1 3,1 13 7 26 14 NNW 50 0,0
07.07.2020 17:00:00 11,7 3,2 13 7 28 15 NNW 50 0,0
07.07.2020 16:00:00 13,2 2,7 16 9 26 14 N 40 0,0
07.07.2020 15:00:00 12,3 2,7 11 6 26 14 N 47 0,0
07.07.2020 14:00:00 12,4 3,3 14 8 27 15 N 44 0,0
07.07.2020 13:00:00 12,0 4,7 16 8 25 14 N 39 0,0
07.07.2020 12:00:00 9,9 4,3 12 6 26 14 N 50 0,0
07.07.2020 11:00:00 9,4 4,2 16 8 25 14 N 50 0,0
07.07.2020 10:00:00 8,8 4,6 10 6 26 14 N 50 0,0
07.07.2020 09:00:00 8,8 4,6 16 9 29 16 NNW 50 0,0
07.07.2020 08:00:00 8,6 4,6 17 9 29 16 NW 50 0,0
07.07.2020 07:00:00 8,4 4,8 6 4 19 11 NNW 50 0,0
07.07.2020 06:00:00 8,4 4,6 5 3 9 5 SE 50 0,0
07.07.2020 05:00:00 8,1 4,5 0 0 9 5 N 50 0,0
07.07.2020 04:00:00 4,8 4,1 0 0 6 4 N 50 0,0
07.07.2020 03:00:00 4,1 2,5 0 0 9 5 N 50 0,0
07.07.2020 02:00:00 5,4 2,4 5 3 14 8 NNW 50 0,0
07.07.2020 01:00:00 6,5 2,8 7 4 13 7 N 50 0,0
07.07.2020 00:00:00 7,7 2,8 7 4 20 11 NNW 50 0,0
06.07.2020 23:00:00 9,1 2,6 13 7 23 13 N 50 0,0
06.07.2020 22:00:00 10,7 2,0 13 7 29 16 N 50 0,0
06.07.2020 21:00:00 11,8 2,0 19 10 39 21 NNW 49 0,0
06.07.2020 20:00:00 12,9 2,2 20 11 38 21 NNW 49 0,0
06.07.2020 19:00:00 13,8 1,4 23 12 40 21 NNW 43 0,0
06.07.2020 18:00:00 14,8 1,3 21 12 37 20 NNW 45 0,0
06.07.2020 17:00:00 15,5 0,9 23 12 34 19 NNW 50 0,0
06.07.2020 16:00:00 16,2 0,7 19 10 30 16 NNW 39 0,0
06.07.2020 15:00:00 16,1 -0,2 12 7 27 15 NNW 41 0,0
06.07.2020 14:00:00 15,5 0,5 15 8 29 15 N 36 0,0
06.07.2020 13:00:00 15,1 0,5 11 6 24 13 NNE 34 0,0
06.07.2020 12:00:00 14,0 -0,1 11 6 21 11 NE 50 0,0
06.07.2020 11:00:00 13,7 2,9 8 4 16 9 ENE 38 0,0
06.07.2020 10:00:00 13,0 3,4 5 3 14 8 NNE 36 0,0
06.07.2020 09:00:00 11,9 3,1 3 2 17 9 S 38 0,0
06.07.2020 08:00:00 11,3 4,1 7 4 17 9 ESE 45 0,0
06.07.2020 07:00:00 9,4 3,4 7 4 12 6 SSE 50 0,0
06.07.2020 06:00:00 8,5 3,5 7 4 11 6 SSE 50 0,0
06.07.2020 05:00:00 7,2 3,4 6 3 9 5 SSE 50 0,0
06.07.2020 04:00:00 6,2 3,5 0 0 6 3 N 50 0,0
06.07.2020 03:00:00 5,0 3,0 3 2 4 2 SSE 50 0,0
06.07.2020 02:00:00 5,2 2,7 5 3 8 5 SW 50 0,0
06.07.2020 01:00:00 6,8 3,6 0 0 5 3 N 50 0,0
06.07.2020 00:00:00 6,6 4,3 0 0 4 2 N 50 0,0
05.07.2020 23:00:00 9,0 2,1 3 1 6 3 NE 50 0,0
05.07.2020 22:00:00 9,9 1,5 4 2 12 6 N 49 0,0
05.07.2020 21:00:00 10,6 1,4 7 4 13 7 N 41 0,0
05.07.2020 20:00:00 11,3 0,4 9 5 16 8 N 44 0,0
05.07.2020 19:00:00 11,6 0,4 10 5 19 10 N 50 0,0
05.07.2020 18:00:00 11,7 0,2 10 5 23 12 NNE 38 0,0
05.07.2020 17:00:00 11,8 0,8 13 7 27 14 NNE 35 0,0
05.07.2020 16:00:00 12,1 1,1 15 8 28 15 N 50 0,0
05.07.2020 15:00:00 12,4 1,1 14 8 27 15 N 43 0,0
05.07.2020 14:00:00 11,1 -0,1 14 8 29 16 N 43 0,0
05.07.2020 13:00:00 11,1 0,2 15 8 34 18 NNW 40 0,0
05.07.2020 12:00:00 10,3 0,9 18 10 30 16 NNW 40 0,0
05.07.2020 11:00:00 9,1 0,3 18 10 34 18 NNW 42 0,0
05.07.2020 10:00:00 8,1 0,3 16 9 29 16 N 50 0,0
05.07.2020 09:00:00 7,4 0,8 13 7 26 14 N 50 0,0
05.07.2020 08:00:00 7,1 2,0 14 8 28 15 N 50 0,0
05.07.2020 07:00:00 6,3 1,6 15 8 29 15 N 50 0,0
05.07.2020 06:00:00 6,7 1,9 13 7 23 12 N 50 0,0
05.07.2020 05:00:00 6,4 2,3 10 6 18 10 N 50 0,0
05.07.2020 04:00:00 6,3 3,3 10 5 17 9 N 50 0,0
05.07.2020 03:00:00 6,2 3,4 7 4 17 9 N 50 0,0
05.07.2020 02:00:00 6,7 3,3 9 5 15 8 N 50 0,0
05.07.2020 01:00:00 6,9 3,5 6 3 18 10 N 50 0,0
05.07.2020 00:00:00 7,3 3,3 7 4 16 9 N 50 0,0
04.07.2020 23:00:00 7,7 3,4 8 4 15 8 N 50 0,0
04.07.2020 22:00:00 8,5 2,7 9 5 16 9 N 50 0,0
04.07.2020 21:00:00 8,9 3,1 11 6 19 10 N 50 0,0
04.07.2020 20:00:00 10,2 2,8 12 7 22 12 N 47 0,0
04.07.2020 19:00:00 9,6 2,9 11 6 20 11 N 46 0,0
04.07.2020 18:00:00 9,4 2,0 12 6 24 13 N 45 0,0
04.07.2020 17:00:00 9,6 1,7 15 8 27 14 NNE 50 0,0
04.07.2020 16:00:00 9,8 2,2 14 7 30 16 NNW 50 0,0
04.07.2020 15:00:00 10,3 2,4 20 11 32 17 NNW 50 0,0
04.07.2020 14:00:00 11,0 2,8 17 9 29 16 N 50 0,0
04.07.2020 13:00:00 9,8 2,6 16 9 31 17 NNW 44 0,0
04.07.2020 12:00:00 9,4 2,5 18 10 31 17 NNW 44 0,0
04.07.2020 11:00:00 8,9 3,1 19 10 33 18 NNW 38 0,0

tt = temperature
td = dewpoint
ff = wind speed
fx = gusts
dd = wind direction
vv = visibility
rr = precipitation

Next stations